Time;durP1;ratioP1;P1;durP2;ratioP2;P2;SDS_P1;SDS_P2;PMS_P1;PMS_P2;Temp;Humidity;BMP_temperature;BMP_pressure;BME280_temperature;BME280_humidity;BME280_pressure;Samples;Min_cycle;Max_cycle;Signal;HPM_P1;HPM_P2
2022/03/18 00:02:15;;;;;;;14.85;6.43;;;;;;;;;;5119806;28;20031;-74
2022/03/18 00:04:41;;;;;;;11.60;6.28;;;;;;;;;;5121207;27;20032;-75
2022/03/18 00:07:07;;;;;;;14.25;7.10;;;;;;;;;;5105914;28;20420;-74
2022/03/18 00:09:33;;;;;;;15.52;6.95;;;;;;;;;;5100107;28;20558;-74
2022/03/18 00:11:58;;;;;;;15.50;7.28;;;;;;;;;;5106462;27;20651;-74
2022/03/18 00:14:23;;;;;;;14.40;6.88;;;;;;;;;;5091013;28;20509;-74
2022/03/18 00:16:49;;;;;;;16.52;6.22;;;;;;;;;;5107555;28;20042;-75
2022/03/18 00:19:15;;;;;;;14.02;7.00;;;;;;;;;;5107381;27;20428;-74
2022/03/18 00:21:42;;;;;;;16.60;7.10;;;;;;;;;;5107423;28;20042;-75
2022/03/18 00:24:07;;;;;;;12.95;6.47;;;;;;;;;;5104613;28;20089;-74
2022/03/18 00:26:32;;;;;;;14.38;6.68;;;;;;;;;;5106454;28;20020;-74
2022/03/18 00:28:58;;;;;;;14.98;7.57;;;;;;;;;;5108918;27;20535;-74
2022/03/18 00:31:24;;;;;;;18.15;7.95;;;;;;;;;;5110766;27;20062;-74
2022/03/18 00:33:49;;;;;;;17.60;8.10;;;;;;;;;;5111325;27;20049;-74
2022/03/18 00:36:15;;;;;;;15.18;8.27;;;;;;;;;;5110745;27;20430;-74
2022/03/18 00:38:40;;;;;;;14.32;7.85;;;;;;;;;;5103096;28;20026;-74
2022/03/18 00:41:06;;;;;;;15.18;7.47;;;;;;;;;;5103627;28;20050;-75
2022/03/18 00:43:32;;;;;;;14.90;7.13;;;;;;;;;;5109632;28;20148;-75
2022/03/18 00:45:57;;;;;;;14.20;6.90;;;;;;;;;;5111041;27;20071;-75
2022/03/18 00:53:52;;;;;;;18.80;7.25;;;;;;;;;;5094737;27;20064;-75
2022/03/18 00:56:18;;;;;;;14.38;7.03;;;;;;;;;;5110832;28;20051;-74
2022/03/18 00:58:43;;;;;;;15.32;7.20;;;;;;;;;;5114839;27;20397;-74
2022/03/18 01:01:09;;;;;;;12.05;6.30;;;;;;;;;;5112811;27;20035;-74
2022/03/18 01:03:35;;;;;;;13.63;6.15;;;;;;;;;;5107745;27;20583;-74
2022/03/18 01:06:00;;;;;;;13.93;6.68;;;;;;;;;;5109210;27;20043;-74
2022/03/18 01:08:25;;;;;;;14.18;6.90;;;;;;;;;;5111061;28;20453;-75
2022/03/18 01:10:51;;;;;;;12.25;6.53;;;;;;;;;;5110587;27;20526;-75
2022/03/18 01:13:16;;;;;;;14.65;6.72;;;;;;;;;;5109299;28;20062;-74
2022/03/18 01:15:41;;;;;;;14.43;6.40;;;;;;;;;;5110449;27;20930;-76
2022/03/18 01:18:07;;;;;;;11.52;6.57;;;;;;;;;;5110207;27;20039;-74
2022/03/18 01:20:33;;;;;;;14.25;6.55;;;;;;;;;;5106363;28;20035;-74
2022/03/18 01:23:00;;;;;;;14.07;6.95;;;;;;;;;;5110120;27;20035;-74
2022/03/18 01:25:26;;;;;;;15.73;7.22;;;;;;;;;;5110678;27;20032;-74
2022/03/18 01:27:51;;;;;;;13.45;6.65;;;;;;;;;;5109775;28;20058;-74
2022/03/18 01:30:16;;;;;;;19.27;7.28;;;;;;;;;;5110290;27;20093;-74
2022/03/18 01:32:42;;;;;;;14.65;6.70;;;;;;;;;;5109756;27;20656;-74
2022/03/18 01:35:08;;;;;;;13.40;7.13;;;;;;;;;;5110902;28;20034;-74
2022/03/18 01:37:33;;;;;;;16.65;6.95;;;;;;;;;;5109772;27;20049;-74
2022/03/18 01:39:59;;;;;;;14.13;7.05;;;;;;;;;;5107752;28;20032;-74
2022/03/18 01:42:24;;;;;;;17.73;7.35;;;;;;;;;;5108276;28;20047;-75
2022/03/18 01:44:49;;;;;;;11.10;6.75;;;;;;;;;;5108432;27;20485;-74
2022/03/18 01:47:15;;;;;;;16.75;7.47;;;;;;;;;;5110083;28;20031;-74
2022/03/18 01:49:40;;;;;;;14.52;6.82;;;;;;;;;;5109915;27;20036;-75
2022/03/18 01:52:08;;;;;;;15.10;7.05;;;;;;;;;;5108033;28;20470;-74
2022/03/18 01:54:47;;;;;;;13.80;6.93;;;;;;;;;;5109123;28;20556;-74
2022/03/18 01:57:16;;;;;;;15.50;7.07;;;;;;;;;;5103193;27;20059;-76
2022/03/18 01:59:42;;;;;;;15.23;6.88;;;;;;;;;;5106568;27;20417;-74
2022/03/18 02:02:08;;;;;;;12.07;6.20;;;;;;;;;;5114372;27;20019;-74
2022/03/18 02:04:35;;;;;;;13.15;6.25;;;;;;;;;;5108941;27;20039;-74
2022/03/18 02:07:02;;;;;;;13.02;6.03;;;;;;;;;;5109599;28;20509;-75
2022/03/18 02:09:27;;;;;;;14.40;6.53;;;;;;;;;;5108803;27;20043;-74
2022/03/18 02:11:53;;;;;;;13.45;5.63;;;;;;;;;;5091859;28;20099;-74
2022/03/18 02:14:32;;;;;;;15.13;6.38;;;;;;;;;;5108562;28;20031;-75
2022/03/18 02:16:58;;;;;;;14.32;6.28;;;;;;;;;;5108862;27;20050;-76
2022/03/18 02:19:23;;;;;;;14.65;6.53;;;;;;;;;;5108897;27;20035;-74
2022/03/18 02:21:50;;;;;;;15.27;7.10;;;;;;;;;;5107260;28;20509;-74
2022/03/18 02:24:16;;;;;;;12.07;6.57;;;;;;;;;;5106215;27;20130;-74
2022/03/18 02:26:46;;;;;;;15.80;7.03;;;;;;;;;;5109372;28;20129;-74
2022/03/18 02:29:12;;;;;;;13.88;6.82;;;;;;;;;;5108244;28;20031;-76
2022/03/18 02:31:38;;;;;;;16.42;7.10;;;;;;;;;;5109016;27;20072;-75
2022/03/18 02:34:03;;;;;;;13.70;6.88;;;;;;;;;;5106547;28;20044;-76
2022/03/18 02:36:28;;;;;;;17.70;8.18;;;;;;;;;;5109251;28;20134;-75
2022/03/18 02:38:54;;;;;;;17.58;7.68;;;;;;;;;;5106358;27;20121;-75
2022/03/18 02:41:19;;;;;;;24.38;9.50;;;;;;;;;;5109611;28;20608;-75
2022/03/18 02:43:46;;;;;;;18.98;7.57;;;;;;;;;;5108406;28;20044;-74
2022/03/18 02:46:11;;;;;;;23.95;7.78;;;;;;;;;;5107712;28;20048;-76
2022/03/18 02:48:37;;;;;;;17.30;8.38;;;;;;;;;;5108439;27;20031;-74
2022/03/18 02:51:02;;;;;;;17.67;8.32;;;;;;;;;;5108349;27;20394;-74
2022/03/18 02:53:27;;;;;;;18.58;8.32;;;;;;;;;;5120332;27;20138;-76
2022/03/18 02:55:54;;;;;;;14.52;6.90;;;;;;;;;;5108154;27;20032;-74
2022/03/18 02:58:19;;;;;;;12.80;6.57;;;;;;;;;;5102875;27;20031;-74
2022/03/18 03:00:45;;;;;;;14.70;6.75;;;;;;;;;;5102112;28;20054;-74
2022/03/18 03:03:10;;;;;;;12.68;5.07;;;;;;;;;;5123570;27;20708;-75
2022/03/18 03:08:19;;;;;;;13.75;5.60;;;;;;;;;;5109029;28;20038;-75
2022/03/18 03:10:44;;;;;;;11.57;5.75;;;;;;;;;;5106872;28;20031;-74
2022/03/18 03:13:10;;;;;;;12.10;5.32;;;;;;;;;;5108545;27;20035;-74
2022/03/18 03:15:36;;;;;;;14.00;5.85;;;;;;;;;;5108146;27;20032;-74
2022/03/18 03:18:02;;;;;;;9.73;4.97;;;;;;;;;;5108314;28;20100;-74
2022/03/18 03:20:27;;;;;;;15.13;5.97;;;;;;;;;;5099760;28;20068;-74
2022/03/18 03:22:52;;;;;;;12.73;5.80;;;;;;;;;;5086667;28;20104;-75
2022/03/18 03:25:18;;;;;;;15.15;5.80;;;;;;;;;;5118523;27;20484;-75
2022/03/18 03:27:43;;;;;;;11.63;5.78;;;;;;;;;;5108307;28;20039;-74
2022/03/18 03:30:10;;;;;;;14.30;6.38;;;;;;;;;;5106019;28;20032;-74
2022/03/18 03:32:36;;;;;;;10.48;5.00;;;;;;;;;;5108035;27;20124;-74
2022/03/18 03:35:01;;;;;;;11.45;5.38;;;;;;;;;;5108146;28;20016;-75
2022/03/18 03:37:27;;;;;;;13.80;5.45;;;;;;;;;;5108264;27;20054;-75
2022/03/18 03:39:53;;;;;;;9.00;5.35;;;;;;;;;;5107162;28;20031;-74
2022/03/18 03:42:19;;;;;;;12.85;5.50;;;;;;;;;;5107734;28;20069;-74
2022/03/18 03:44:45;;;;;;;11.30;5.70;;;;;;;;;;5107237;28;20491;-76
2022/03/18 03:47:11;;;;;;;10.52;5.30;;;;;;;;;;5107946;28;20023;-75
2022/03/18 03:49:37;;;;;;;13.30;5.65;;;;;;;;;;5107910;27;20436;-76
2022/03/18 03:52:03;;;;;;;11.55;5.65;;;;;;;;;;5115902;28;20601;-74
2022/03/18 03:54:28;;;;;;;11.68;5.38;;;;;;;;;;5121545;27;20043;-74
2022/03/18 03:56:57;;;;;;;9.38;5.13;;;;;;;;;;5100652;28;20493;-74
2022/03/18 03:59:22;;;;;;;13.65;5.65;;;;;;;;;;5116738;28;20489;-75
2022/03/18 04:01:48;;;;;;;12.40;5.60;;;;;;;;;;5110513;27;20115;-75
2022/03/18 04:04:13;;;;;;;14.43;5.85;;;;;;;;;;5107224;28;20051;-74
2022/03/18 04:06:39;;;;;;;12.93;5.63;;;;;;;;;;5110015;28;20085;-74
2022/03/18 04:09:04;;;;;;;12.55;6.43;;;;;;;;;;5111974;28;20118;-74
2022/03/18 04:11:30;;;;;;;15.80;6.43;;;;;;;;;;5111845;28;20061;-74
2022/03/18 04:13:55;;;;;;;13.40;6.70;;;;;;;;;;5112140;27;20027;-76
2022/03/18 04:16:21;;;;;;;17.38;6.53;;;;;;;;;;5111276;27;20131;-74
2022/03/18 04:18:48;;;;;;;17.02;6.25;;;;;;;;;;5111569;28;20036;-74
2022/03/18 04:21:14;;;;;;;17.83;7.85;;;;;;;;;;5106624;27;20106;-74
2022/03/18 04:23:40;;;;;;;17.83;8.68;;;;;;;;;;5101170;27;20499;-74
2022/03/18 04:26:05;;;;;;;21.45;7.57;;;;;;;;;;5115367;27;20118;-74
2022/03/18 04:28:31;;;;;;;11.82;6.38;;;;;;;;;;5111695;27;20127;-74
2022/03/18 04:30:56;;;;;;;14.80;6.57;;;;;;;;;;5110931;27;20448;-75
2022/03/18 04:33:21;;;;;;;12.48;5.75;;;;;;;;;;5111454;27;20059;-74
2022/03/18 04:35:47;;;;;;;16.60;6.43;;;;;;;;;;5111144;28;20026;-74
2022/03/18 04:38:12;;;;;;;16.08;6.30;;;;;;;;;;5110103;28;20051;-75
2022/03/18 04:40:38;;;;;;;14.13;6.30;;;;;;;;;;5110101;28;20062;-74
2022/03/18 04:43:03;;;;;;;12.70;6.45;;;;;;;;;;5111141;27;20053;-75
2022/03/18 04:45:28;;;;;;;14.60;6.78;;;;;;;;;;5111048;28;20133;-75
2022/03/18 04:47:54;;;;;;;14.40;7.35;;;;;;;;;;5095883;28;20116;-74
2022/03/18 04:50:20;;;;;;;18.38;7.05;;;;;;;;;;5095260;28;20062;-75
2022/03/18 04:52:45;;;;;;;16.20;7.07;;;;;;;;;;5113695;27;20177;-75
2022/03/18 04:55:11;;;;;;;14.43;7.43;;;;;;;;;;5106927;28;20027;-75
2022/03/18 04:57:37;;;;;;;14.57;6.53;;;;;;;;;;5113113;27;20027;-76
2022/03/18 05:00:04;;;;;;;17.40;7.35;;;;;;;;;;5131590;27;20031;-74
2022/03/18 05:02:30;;;;;;;17.70;6.70;;;;;;;;;;5115009;27;20034;-74
2022/03/18 05:04:55;;;;;;;12.70;6.03;;;;;;;;;;5104156;27;20028;-75
2022/03/18 05:07:21;;;;;;;19.15;6.43;;;;;;;;;;5108518;27;20153;-74
2022/03/18 05:09:47;;;;;;;14.43;6.43;;;;;;;;;;5094558;28;20141;-75
2022/03/18 05:12:15;;;;;;;14.23;6.80;;;;;;;;;;5103447;28;20054;-74
2022/03/18 05:14:41;;;;;;;11.50;6.10;;;;;;;;;;5101154;27;20054;-74
2022/03/18 05:17:08;;;;;;;12.65;6.13;;;;;;;;;;5108935;28;20487;-74
2022/03/18 05:19:34;;;;;;;13.55;6.45;;;;;;;;;;5109297;27;20061;-74
2022/03/18 05:22:00;;;;;;;12.73;5.85;;;;;;;;;;5102770;28;20066;-74
2022/03/18 05:24:26;;;;;;;15.60;6.28;;;;;;;;;;5108952;28;20113;-75
2022/03/18 05:26:52;;;;;;;13.80;7.25;;;;;;;;;;5110185;27;20081;-76
2022/03/18 05:29:18;;;;;;;13.77;6.18;;;;;;;;;;5110187;28;20520;-76
2022/03/18 05:31:43;;;;;;;15.82;7.28;;;;;;;;;;5109876;28;20059;-75
2022/03/18 05:34:09;;;;;;;13.35;7.15;;;;;;;;;;5108223;27;20079;-74
2022/03/18 05:36:34;;;;;;;17.70;7.18;;;;;;;;;;5108886;27;20067;-74
2022/03/18 05:38:59;;;;;;;11.57;6.30;;;;;;;;;;5108979;27;20405;-74
2022/03/18 05:41:25;;;;;;;14.07;6.82;;;;;;;;;;5110590;28;20027;-75
2022/03/18 05:43:50;;;;;;;18.27;7.53;;;;;;;;;;5108608;28;20063;-74
2022/03/18 05:46:16;;;;;;;16.27;7.47;;;;;;;;;;5109345;27;20428;-75
2022/03/18 05:48:41;;;;;;;14.85;7.07;;;;;;;;;;5110076;27;20032;-74
2022/03/18 05:51:07;;;;;;;17.02;7.80;;;;;;;;;;5108883;28;20504;-74
2022/03/18 05:53:33;;;;;;;17.30;7.20;;;;;;;;;;5110052;28;20064;-74
2022/03/18 05:58:44;;;;;;;15.93;7.82;;;;;;;;;;5113620;27;20050;-74
2022/03/18 06:01:10;;;;;;;15.45;6.43;;;;;;;;;;5112888;27;20408;-74
2022/03/18 06:03:36;;;;;;;20.77;7.65;;;;;;;;;;5110756;27;20087;-74
2022/03/18 06:06:03;;;;;;;14.13;7.32;;;;;;;;;;5105108;28;20039;-74
2022/03/18 06:13:58;;;;;;;;;;;;;;;;;;5089005;28;20050;-76
2022/03/18 06:16:23;;;;;;;18.48;7.55;;;;;;;;;;5089236;28;19919;-75
2022/03/18 06:18:48;;;;;;;18.80;8.05;;;;;;;;;;5088609;28;20063;-75
2022/03/18 06:21:15;;;;;;;24.23;11.45;;;;;;;;;;5089977;28;20039;-74
2022/03/18 06:23:40;;;;;;;23.95;9.45;;;;;;;;;;5083490;28;20040;-74
2022/03/18 06:26:06;;;;;;;28.55;14.52;;;;;;;;;;5088581;28;20024;-75
2022/03/18 06:28:31;;;;;;;20.42;10.02;;;;;;;;;;5087865;28;20067;-74
2022/03/18 06:30:57;;;;;;;19.35;9.30;;;;;;;;;;5088032;28;20119;-75
2022/03/18 06:33:22;;;;;;;23.13;9.00;;;;;;;;;;5088483;28;20039;-76
2022/03/18 06:35:47;;;;;;;23.58;10.10;;;;;;;;;;5088005;28;20024;-74
2022/03/18 06:38:13;;;;;;;24.52;10.38;;;;;;;;;;5087204;28;20055;-74
2022/03/18 06:40:38;;;;;;;21.38;11.00;;;;;;;;;;5081760;28;20055;-75
2022/03/18 06:43:03;;;;;;;23.83;10.32;;;;;;;;;;5097753;28;20046;-75
2022/03/18 06:45:29;;;;;;;22.15;12.35;;;;;;;;;;5104050;27;20078;-74
2022/03/18 06:47:54;;;;;;;16.70;8.77;;;;;;;;;;5088764;28;20520;-75
2022/03/18 06:50:22;;;;;;;18.65;8.68;;;;;;;;;;5084492;28;20485;-75
2022/03/18 06:52:47;;;;;;;19.67;8.50;;;;;;;;;;5084190;28;20086;-75
2022/03/18 06:55:13;;;;;;;20.65;8.93;;;;;;;;;;5079606;28;20028;-75
2022/03/18 06:57:38;;;;;;;21.85;9.75;;;;;;;;;;5075483;28;20044;-75
2022/03/18 07:00:04;;;;;;;18.25;9.48;;;;;;;;;;5081312;27;20040;-75
2022/03/18 07:02:29;;;;;;;20.98;8.95;;;;;;;;;;5077431;28;20397;-76
2022/03/18 07:04:55;;;;;;;19.27;9.15;;;;;;;;;;5072817;28;20047;-75
2022/03/18 07:07:20;;;;;;;16.70;8.57;;;;;;;;;;5091072;28;20059;-75
2022/03/18 07:09:46;;;;;;;20.33;9.05;;;;;;;;;;5084777;28;20042;-76
2022/03/18 07:12:11;;;;;;;23.23;9.75;;;;;;;;;;5084475;28;20066;-76
2022/03/18 07:14:36;;;;;;;23.83;9.70;;;;;;;;;;5087535;28;20056;-74
2022/03/18 07:19:45;;;;;;;26.55;11.48;;;;;;;;;;5079987;28;20700;-75
2022/03/18 07:22:11;;;;;;;27.10;11.75;;;;;;;;;;5079819;28;20036;-75
2022/03/18 07:24:36;;;;;;;26.52;11.48;;;;;;;;;;5086145;27;20054;-75
2022/03/18 07:27:02;;;;;;;25.02;10.05;;;;;;;;;;5087353;28;20081;-75
2022/03/18 07:29:28;;;;;;;25.88;10.57;;;;;;;;;;5086182;28;20032;-75
2022/03/18 07:31:55;;;;;;;22.88;10.52;;;;;;;;;;5105360;28;20547;-75
2022/03/18 07:34:23;;;;;;;20.10;9.45;;;;;;;;;;5088358;28;20036;-75
2022/03/18 07:36:49;;;;;;;20.63;9.32;;;;;;;;;;5100372;28;20040;-76
2022/03/18 07:39:14;;;;;;;16.27;8.30;;;;;;;;;;5102516;28;21013;-75
2022/03/18 07:41:40;;;;;;;27.63;10.55;;;;;;;;;;5100785;27;20027;-73
2022/03/18 07:44:05;;;;;;;17.30;9.40;;;;;;;;;;5093672;28;20019;-71
2022/03/18 07:46:30;;;;;;;22.20;9.32;;;;;;;;;;5093781;28;20051;-70
2022/03/18 07:48:56;;;;;;;15.80;8.45;;;;;;;;;;5093021;28;20040;-71
2022/03/18 07:51:21;;;;;;;24.45;8.40;;;;;;;;;;5094478;28;20039;-71
2022/03/18 07:53:46;;;;;;;17.55;9.18;;;;;;;;;;5098077;28;20040;-72
2022/03/18 07:56:12;;;;;;;21.70;8.48;;;;;;;;;;5096864;28;20027;-73
2022/03/18 07:58:37;;;;;;;25.05;9.25;;;;;;;;;;5089518;27;20032;-73
2022/03/18 08:01:05;;;;;;;25.10;8.90;;;;;;;;;;5078283;27;20046;-74
2022/03/18 08:03:30;;;;;;;24.95;9.35;;;;;;;;;;5078192;28;20066;-73
2022/03/18 08:05:56;;;;;;;18.55;7.65;;;;;;;;;;5073456;28;20790;-71
2022/03/18 08:08:21;;;;;;;20.80;8.95;;;;;;;;;;5083832;28;20114;-72
2022/03/18 08:10:46;;;;;;;19.10;8.40;;;;;;;;;;5085217;27;20119;-72
2022/03/18 08:13:12;;;;;;;15.60;7.30;;;;;;;;;;5083589;27;20036;-70
2022/03/18 08:15:37;;;;;;;15.50;7.18;;;;;;;;;;5077698;28;20040;-75
2022/03/18 08:18:03;;;;;;;18.95;7.75;;;;;;;;;;5084331;27;20078;-71
2022/03/18 08:20:28;;;;;;;17.52;7.60;;;;;;;;;;5095327;28;20088;-74
2022/03/18 08:22:54;;;;;;;16.10;7.05;;;;;;;;;;5073958;27;20044;-74
2022/03/18 08:25:19;;;;;;;13.85;6.55;;;;;;;;;;5101021;27;20043;-76
2022/03/18 08:27:47;;;;;;;18.83;7.07;;;;;;;;;;5097111;28;20052;-75
2022/03/18 08:30:12;;;;;;;15.52;6.75;;;;;;;;;;5114882;27;20036;-74
2022/03/18 08:32:38;;;;;;;17.48;7.18;;;;;;;;;;5085527;27;20032;-72
2022/03/18 08:35:05;;;;;;;16.85;7.10;;;;;;;;;;5085987;28;20035;-76
2022/03/18 08:40:15;;;;;;;18.25;7.78;;;;;;;;;;5081601;28;20038;-74
2022/03/18 08:42:40;;;;;;;13.95;7.50;;;;;;;;;;5079675;28;20040;-73
2022/03/18 08:45:07;;;;;;;18.30;7.80;;;;;;;;;;5082485;28;20596;-78
2022/03/18 08:47:32;;;;;;;17.60;8.13;;;;;;;;;;5076452;28;20410;-75
2022/03/18 08:49:58;;;;;;;16.33;7.72;;;;;;;;;;5077921;28;20055;-74
2022/03/18 08:52:23;;;;;;;15.77;7.15;;;;;;;;;;5099268;28;20151;-74
2022/03/18 08:54:49;;;;;;;12.68;5.45;;;;;;;;;;5109706;27;20100;-75
2022/03/18 08:57:14;;;;;;;14.45;7.38;;;;;;;;;;5105433;27;20054;-69
2022/03/18 08:59:40;;;;;;;19.45;7.10;;;;;;;;;;5105187;27;20055;-71
2022/03/18 09:02:05;;;;;;;16.08;6.88;;;;;;;;;;5107923;28;20062;-74
2022/03/18 09:04:31;;;;;;;18.30;6.50;;;;;;;;;;5103829;27;20130;-73
2022/03/18 09:06:56;;;;;;;17.88;6.25;;;;;;;;;;5100124;27;20672;-73
2022/03/18 09:09:21;;;;;;;14.55;5.80;;;;;;;;;;5108932;27;20505;-72
2022/03/18 09:11:47;;;;;;;13.13;6.43;;;;;;;;;;5107711;27;20040;-73
2022/03/18 09:14:13;;;;;;;16.75;6.80;;;;;;;;;;5107997;28;20058;-75
2022/03/18 09:16:38;;;;;;;13.40;5.43;;;;;;;;;;5105791;27;20126;-74
2022/03/18 09:19:05;;;;;;;16.90;7.13;;;;;;;;;;5106680;27;20045;-71
2022/03/18 09:21:30;;;;;;;16.05;6.22;;;;;;;;;;5105972;28;20123;-73
2022/03/18 09:23:56;;;;;;;12.82;6.60;;;;;;;;;;5108951;27;20110;-73
2022/03/18 09:26:21;;;;;;;13.77;5.90;;;;;;;;;;5108615;28;20061;-72
2022/03/18 09:28:47;;;;;;;13.07;6.00;;;;;;;;;;5107544;27;20055;-73
2022/03/18 09:31:12;;;;;;;12.85;6.20;;;;;;;;;;5107106;27;20085;-71
2022/03/18 09:33:41;;;;;;;14.00;5.95;;;;;;;;;;5099742;27;20040;-75
2022/03/18 09:36:06;;;;;;;10.10;5.38;;;;;;;;;;5107670;27;20031;-71
2022/03/18 09:38:32;;;;;;;11.18;4.30;;;;;;;;;;5108777;28;20084;-72
2022/03/18 09:40:57;;;;;;;9.98;5.47;;;;;;;;;;5103175;27;20542;-73
2022/03/18 09:43:22;;;;;;;14.02;6.53;;;;;;;;;;5101843;27;20035;-73
2022/03/18 09:45:48;;;;;;;15.80;6.10;;;;;;;;;;5101141;28;20044;-73
2022/03/18 09:48:14;;;;;;;11.73;5.78;;;;;;;;;;5106574;27;20031;-73
2022/03/18 09:50:40;;;;;;;14.38;5.50;;;;;;;;;;5099233;28;20021;-73
2022/03/18 09:53:06;;;;;;;14.35;5.50;;;;;;;;;;5100790;28;20024;-74
2022/03/18 09:55:34;;;;;;;13.75;5.82;;;;;;;;;;5104669;28;20039;-74
2022/03/18 09:58:00;;;;;;;8.55;4.70;;;;;;;;;;5102709;28;20078;-73
2022/03/18 10:00:25;;;;;;;9.98;4.53;;;;;;;;;;5104296;28;20059;-74
2022/03/18 10:03:09;;;;;;;8.20;3.15;;;;;;;;;;5106976;27;20019;-72
2022/03/18 10:05:34;;;;;;;9.57;3.42;;;;;;;;;;5098156;28;20720;-73
2022/03/18 10:08:00;;;;;;;8.88;3.17;;;;;;;;;;5105443;27;20180;-72
2022/03/18 10:10:26;;;;;;;7.28;3.13;;;;;;;;;;5104580;27;20036;-72
2022/03/18 10:12:55;;;;;;;7.85;3.10;;;;;;;;;;5099951;28;20552;-72
2022/03/18 10:15:23;;;;;;;5.43;2.80;;;;;;;;;;5103490;27;20039;-71
2022/03/18 10:17:52;;;;;;;6.55;2.80;;;;;;;;;;5103491;27;20430;-71
2022/03/18 10:20:32;;;;;;;6.43;3.03;;;;;;;;;;5103174;28;20706;-73
2022/03/18 10:23:03;;;;;;;8.85;2.63;;;;;;;;;;5101003;28;20529;-72
2022/03/18 10:25:39;;;;;;;6.70;3.15;;;;;;;;;;5102137;28;20043;-72
2022/03/18 10:28:06;;;;;;;6.68;2.80;;;;;;;;;;5098073;27;20465;-74
2022/03/18 10:30:32;;;;;;;4.15;1.83;;;;;;;;;;5105775;27;20088;-71
2022/03/18 10:32:58;;;;;;;5.97;2.55;;;;;;;;;;5107047;27;20120;-73
2022/03/18 10:38:33;;;;;;;5.85;2.08;;;;;;;;;;5104753;28;20089;-73
2022/03/18 10:41:04;;;;;;;5.90;2.70;;;;;;;;;;5102231;27;20054;-74
2022/03/18 10:43:49;;;;;;;4.57;2.53;;;;;;;;;;5096668;27;20035;-72
2022/03/18 10:46:14;;;;;;;4.50;1.80;;;;;;;;;;5099012;28;20062;-72
2022/03/18 10:48:40;;;;;;;3.58;2.10;;;;;;;;;;5092004;28;20039;-72
2022/03/18 10:51:07;;;;;;;4.60;2.15;;;;;;;;;;5104961;27;20513;-72
2022/03/18 10:53:33;;;;;;;3.60;1.92;;;;;;;;;;5097799;28;20032;-72
2022/03/18 10:56:01;;;;;;;5.57;2.10;;;;;;;;;;5099591;28;20440;-72
2022/03/18 10:58:29;;;;;;;7.38;1.83;;;;;;;;;;5102996;28;20150;-72
2022/03/18 11:00:58;;;;;;;4.65;1.90;;;;;;;;;;5103058;27;20748;-72
2022/03/18 11:03:24;;;;;;;7.00;2.53;;;;;;;;;;5106355;27;20548;-72
2022/03/18 11:05:53;;;;;;;3.70;1.23;;;;;;;;;;5103081;27;20041;-71
2022/03/18 11:08:23;;;;;;;8.55;2.35;;;;;;;;;;5105598;27;20034;-71
2022/03/18 11:13:56;;;;;;;7.30;2.60;;;;;;;;;;5102192;27;20108;-74
2022/03/18 11:16:28;;;;;;;4.72;2.45;;;;;;;;;;5104034;27;20047;-72
2022/03/18 11:18:53;;;;;;;5.60;2.42;;;;;;;;;;5091474;28;20091;-73
2022/03/18 11:21:21;;;;;;;4.25;2.13;;;;;;;;;;5101054;28;20073;-72
2022/03/18 11:23:47;;;;;;;3.00;1.63;;;;;;;;;;5106258;27;20020;-73
2022/03/18 11:26:14;;;;;;;5.28;2.83;;;;;;;;;;5105668;28;20036;-73
2022/03/18 11:28:40;;;;;;;4.70;2.40;;;;;;;;;;5103541;28;20039;-73
2022/03/18 11:31:10;;;;;;;5.03;2.40;;;;;;;;;;5103501;27;20058;-74
2022/03/18 11:33:38;;;;;;;4.45;2.30;;;;;;;;;;5101159;28;20062;-72
2022/03/18 11:36:08;;;;;;;7.20;2.88;;;;;;;;;;5103395;27;20035;-73
2022/03/18 11:38:57;;;;;;;4.35;2.38;;;;;;;;;;5105090;28;20690;-73
2022/03/18 11:41:27;;;;;;;9.35;3.28;;;;;;;;;;5085734;28;20096;-72
2022/03/18 11:43:54;;;;;;;8.93;3.05;;;;;;;;;;5103637;28;20035;-72
2022/03/18 11:46:23;;;;;;;6.45;2.20;;;;;;;;;;5098786;27;20461;-72
2022/03/18 11:48:52;;;;;;;7.18;3.03;;;;;;;;;;5102344;27;20072;-71
2022/03/18 11:51:35;;;;;;;9.00;2.95;;;;;;;;;;5104030;27;20047;-70
2022/03/18 11:54:16;;;;;;;9.00;3.33;;;;;;;;;;5097608;28;20085;-71
2022/03/18 11:56:41;;;;;;;5.45;2.50;;;;;;;;;;5096857;27;20039;-71
2022/03/18 11:59:28;;;;;;;6.20;2.47;;;;;;;;;;5103507;28;20051;-71
2022/03/18 12:01:59;;;;;;;6.10;2.65;;;;;;;;;;5101484;27;20035;-70
2022/03/18 12:04:34;;;;;;;3.92;2.20;;;;;;;;;;5098893;28;20043;-71
2022/03/18 12:07:51;;;;;;;6.63;2.60;;;;;;;;;;5098647;28;20524;-71
2022/03/18 12:10:10;;;;;;;5.30;2.50;;;;;;;;;;5086503;27;20036;-71
2022/03/18 12:12:40;;;;;;;4.10;2.75;;;;;;;;;;5084662;28;20109;-70
2022/03/18 12:15:08;;;;;;;7.90;2.13;;;;;;;;;;5085316;28;20035;-70
2022/03/18 12:17:48;;;;;;;4.07;2.35;;;;;;;;;;5086859;28;20023;-71
2022/03/18 12:20:21;;;;;;;4.15;2.33;;;;;;;;;;5083900;28;20044;-73
2022/03/18 12:22:48;;;;;;;;;;;;;;;;;;5085718;28;20044;-73
2022/03/18 12:25:13;;;;;;;6.60;2.88;;;;;;;;;;5086143;28;19920;-73
2022/03/18 12:27:41;;;;;;;5.35;2.50;;;;;;;;;;5086132;28;20032;-70
2022/03/18 12:30:08;;;;;;;3.00;1.98;;;;;;;;;;5087754;28;20039;-70
2022/03/18 12:32:37;;;;;;;6.28;2.60;;;;;;;;;;5089855;28;20055;-70
2022/03/18 12:35:04;;;;;;;4.40;2.10;;;;;;;;;;5087166;28;20085;-70
2022/03/18 12:37:34;;;;;;;6.18;2.45;;;;;;;;;;5087624;27;20044;-71
2022/03/18 12:40:03;;;;;;;6.22;2.72;;;;;;;;;;5083515;27;20109;-71
2022/03/18 12:42:28;;;;;;;4.20;2.35;;;;;;;;;;5080656;28;20413;-70
2022/03/18 12:44:59;;;;;;;5.60;2.20;;;;;;;;;;5091044;27;20024;-71
2022/03/18 12:47:30;;;;;;;5.50;2.60;;;;;;;;;;5108450;28;20514;-71
2022/03/18 12:49:55;;;;;;;3.85;1.90;;;;;;;;;;5104874;27;20031;-71
2022/03/18 12:52:20;;;;;;;6.97;2.70;;;;;;;;;;5094935;27;20595;-70
2022/03/18 12:55:09;;;;;;;9.23;3.88;;;;;;;;;;5083308;28;20032;-71
2022/03/18 12:57:39;;;;;;;6.78;2.60;;;;;;;;;;5088872;27;20583;-72
2022/03/18 13:00:08;;;;;;;10.10;3.30;;;;;;;;;;5107016;27;20054;-71
2022/03/18 13:02:34;;;;;;;7.80;3.05;;;;;;;;;;5070810;28;20050;-70
2022/03/18 13:05:01;;;;;;;5.82;2.63;;;;;;;;;;5064795;28;20068;-72
2022/03/18 13:07:27;;;;;;;4.35;2.53;;;;;;;;;;5069701;28;20047;-71
2022/03/18 13:09:54;;;;;;;7.65;2.90;;;;;;;;;;5075199;27;20105;-69
2022/03/18 13:12:26;;;;;;;4.97;2.35;;;;;;;;;;5067228;28;20040;-70
2022/03/18 13:14:55;;;;;;;4.50;2.23;;;;;;;;;;5072829;27;20595;-69
2022/03/18 13:17:27;;;;;;;5.95;2.00;;;;;;;;;;5083411;28;20020;-69
2022/03/18 13:19:55;;;;;;;6.45;2.40;;;;;;;;;;5082095;27;20143;-70
2022/03/18 13:22:21;;;;;;;5.22;2.20;;;;;;;;;;5083545;28;20051;-70
2022/03/18 13:24:52;;;;;;;4.93;1.65;;;;;;;;;;5095909;27;20047;-71
2022/03/18 13:27:20;;;;;;;4.78;2.22;;;;;;;;;;5098079;27;20040;-71
2022/03/18 13:35:16;;;;;;;4.25;2.10;;;;;;;;;;5103211;28;20042;-70
2022/03/18 13:37:42;;;;;;;2.50;1.60;;;;;;;;;;5104250;27;20051;-69
2022/03/18 13:40:15;;;;;;;6.13;1.90;;;;;;;;;;5102755;27;20042;-71
2022/03/18 13:42:41;;;;;;;4.90;2.03;;;;;;;;;;5104389;28;20047;-71
2022/03/18 13:45:07;;;;;;;5.63;2.40;;;;;;;;;;5105345;27;20047;-71
2022/03/18 13:47:49;;;;;;;6.20;2.58;;;;;;;;;;5100541;28;20500;-71
2022/03/18 13:50:15;;;;;;;5.57;2.30;;;;;;;;;;5082909;28;20036;-70
2022/03/18 13:52:41;;;;;;;7.32;2.10;;;;;;;;;;5083109;28;20047;-71
2022/03/18 13:55:10;;;;;;;4.00;2.17;;;;;;;;;;5083854;28;20044;-69
2022/03/18 13:57:46;;;;;;;5.20;2.30;;;;;;;;;;5089279;28;20753;-68
2022/03/18 14:00:12;;;;;;;4.95;2.40;;;;;;;;;;5070800;28;20086;-68
2022/03/18 14:02:38;;;;;;;4.20;2.63;;;;;;;;;;5083219;27;20081;-68
2022/03/18 14:05:03;;;;;;;4.53;2.55;;;;;;;;;;5072304;28;20531;-67
2022/03/18 14:07:43;;;;;;;4.22;2.17;;;;;;;;;;5090423;28;20047;-69
2022/03/18 14:10:08;;;;;;;4.60;2.33;;;;;;;;;;5105963;27;20043;-69
2022/03/18 14:12:34;;;;;;;4.25;2.38;;;;;;;;;;5106138;28;20035;-70
2022/03/18 14:15:14;;;;;;;6.82;2.42;;;;;;;;;;5104571;28;20035;-70
2022/03/18 14:18:00;;;;;;;5.13;2.50;;;;;;;;;;5106818;27;20077;-70
2022/03/18 14:20:26;;;;;;;5.18;2.28;;;;;;;;;;5105873;28;20084;-72
2022/03/18 14:22:54;;;;;;;4.20;2.30;;;;;;;;;;5107914;27;20741;-71
2022/03/18 14:25:20;;;;;;;3.97;2.42;;;;;;;;;;5098361;28;20096;-71
2022/03/18 14:27:51;;;;;;;4.68;2.60;;;;;;;;;;5103397;28;20067;-70
2022/03/18 14:30:25;;;;;;;5.65;2.70;;;;;;;;;;5103170;28;20100;-71
2022/03/18 14:32:59;;;;;;;4.35;2.88;;;;;;;;;;5106913;28;20028;-71
2022/03/18 14:35:25;;;;;;;6.80;3.03;;;;;;;;;;5104881;28;20576;-70
2022/03/18 14:37:51;;;;;;;6.45;3.13;;;;;;;;;;5105518;28;20088;-70
2022/03/18 14:40:18;;;;;;;7.50;2.85;;;;;;;;;;5101302;28;20035;-69
2022/03/18 14:42:44;;;;;;;7.78;3.13;;;;;;;;;;5093703;28;20555;-71
2022/03/18 14:45:11;;;;;;;3.95;2.15;;;;;;;;;;5105933;27;20513;-74
2022/03/18 14:47:37;;;;;;;2.50;1.90;;;;;;;;;;5096143;27;20444;-71
2022/03/18 14:50:03;;;;;;;4.70;2.17;;;;;;;;;;5099854;28;20030;-73
2022/03/18 14:52:28;;;;;;;6.35;2.50;;;;;;;;;;5091885;28;20044;-71
2022/03/18 14:57:37;;;;;;;4.57;2.22;;;;;;;;;;5106504;27;20042;-71
2022/03/18 15:00:05;;;;;;;6.70;2.97;;;;;;;;;;5105749;27;20043;-73
2022/03/18 15:02:34;;;;;;;8.05;2.58;;;;;;;;;;5105987;28;20035;-71
2022/03/18 15:05:01;;;;;;;4.93;3.40;;;;;;;;;;5104456;28;20057;-71
2022/03/18 15:07:28;;;;;;;7.82;3.00;;;;;;;;;;5101321;27;20046;-71
2022/03/18 15:09:53;;;;;;;5.18;2.90;;;;;;;;;;5102746;27;20650;-70